Flight Track Log - Related Links

Times and Time Zones

All times are in EST time to prevent confusion due to time zone crossing. See the N3333A flight status page for this flight to view local times or setup timezone preferences in your user account.


Time Position Orientation Groundspeed Altitude Reporting Facility
EST Latitude Longitude Course Direction KTS MPH feet Rate Location/Type
Fri 12:48:00 PM 26.6000 -80.3419 270° West  Level FlightAware Approximate
Fri 12:48:42 PM 26.5608 -80.3497 273° West 114 131 5,400  Level Miami Center
Fri 12:49:00 PM 26.6018 -80.3855 273° West  Level FlightAware Approximate
Fri 12:49:42 PM 26.5600 -80.3869 269° West 120 138 5,900  Level Miami Center
Fri 12:50:00 PM 26.6040 -80.4291 273° West  Level FlightAware Approximate
Fri 12:50:42 PM 26.5608 -80.4311 271° West 147 169 5,900  Level Miami Center
Fri 12:51:00 PM 26.6062 -80.4727 273° West  Level FlightAware Approximate
Fri 12:51:42 PM 26.5597 -80.4775 268° West 157 181 5,900  Level Miami Center
Fri 12:52:00 PM 26.6084 -80.5163 273° West  Level FlightAware Approximate
Fri 12:52:42 PM 26.5628 -80.5242 274° West 157 181 5,900  Level Miami Center
Fri 12:53:00 PM 26.6106 -80.5599 273° West  Level FlightAware Approximate
Fri 12:53:42 PM 26.5658 -80.5706 274° West 157 181 5,900  Level Miami Center
Fri 12:54:00 PM 26.6127 -80.6034 273° West  Level FlightAware Approximate
Fri 12:54:42 PM 26.5667 -80.6169 271° West 157 181 5,900  Level Miami Center
Fri 12:55:42 PM 26.5697 -80.6636 274° West 157 181 5,900  Level Miami Center
Fri 12:56:42 PM 26.5747 -80.7103 277° West 157 181 5,900  Level Miami Center
Fri 12:57:42 PM 26.5967 -80.7481 303° West 151 174 5,900  Level Miami Center
Fri 12:58:42 PM 26.6311 -80.7864 315° West 158 182 5,900  Level Miami Center
Fri 12:59:42 PM 26.6594 -80.8175 316° Northwest 164 189 5,900  Level Miami Center
Fri 01:00:42 PM 26.6919 -80.8536 315° West 164 189 5,900  Level Miami Center
Fri 01:01:42 PM 26.7264 -80.8942 314° West 164 189 5,900  Level Miami Center
Fri 01:02:42 PM 26.7544 -80.9300 311° West 169 194 5,900  Level Miami Center
Fri 01:03:42 PM 26.7722 -80.9750 294° West 169 194 5,900  Level Miami Center
Fri 01:04:42 PM 26.7856 -81.0172 289° West 160 184 5,900  Level Miami Center
Fri 01:05:42 PM 26.8008 -81.0642 290° West 160 184 5,900  Level Miami Center
Fri 01:06:42 PM 26.8164 -81.1092 291° West 160 184 5,900  Level Miami Center
Fri 01:07:42 PM 26.8486 -81.1453 315° West 155 178 5,900  Level Miami Center
Fri 01:08:42 PM 26.8828 -81.1861 313° West 160 184 5,900  Level Miami Center
Fri 01:10:00 PM 26.9216 -81.2238 319° Northwest  Level FlightAware Approximate
Fri 01:17:00 PM 27.1225 -81.4374 315° West  Level FlightAware Approximate
Fri 01:18:00 PM 27.1502 -81.4691 315° West  Level FlightAware Approximate
Fri 01:19:00 PM 27.1779 -81.5008 315° West  Level FlightAware Approximate
Fri 01:20:00 PM 27.2056 -81.5325 314° West  Level FlightAware Approximate
Fri 01:21:00 PM 27.2333 -81.5642 314° West  Level FlightAware Approximate
Fri 01:22:00 PM 27.2617 -81.5950 318° Northwest  Level FlightAware Approximate
Fri 01:23:00 PM 27.2913 -81.6246 318° Northwest  Level FlightAware Approximate
Fri 01:24:00 PM 27.3190 -81.6562 313° West  Level FlightAware Approximate
Fri 01:25:00 PM 27.3461 -81.6886 313° West  Level FlightAware Approximate
Fri 01:26:00 PM 27.3731 -81.7211 313° West  Level FlightAware Approximate
Fri 01:27:00 PM 27.3998 -81.7539 312° West  Level FlightAware Approximate
Fri 01:28:00 PM 27.4263 -81.7870 312° West  Level FlightAware Approximate
Fri 01:29:00 PM 27.4530 -81.8197 318° Northwest  Level FlightAware Approximate
Fri 01:30:00 PM 27.4826 -81.8493 318° Northwest  Level FlightAware Approximate
Fri 01:31:00 PM 27.5000 -81.8667 318° Northwest  Level FlightAware Approximate
Fri 01:32:00 PM 27.5149 -81.8805 318° Northwest  Level Estimated
Fri 01:33:00 PM 27.5149 -81.8805 318° Northwest  Level Estimated
Fri 01:34:00 PM 27.5149 -81.8805 318° Northwest  Level Estimated
Fri 01:35:00 PM 27.5149 -81.8805 318° Northwest  Level Estimated
Fri 01:36:00 PM 27.5149 -81.8805 318° Northwest  Level Estimated
Fri 01:37:00 PM 27.5149 -81.8805 318° Northwest  Level Estimated
Fri 01:38:00 PM 27.5149 -81.8805 318° Northwest  Level Estimated
Fri 01:39:00 PM 27.5149 -81.8805 318° Northwest  Level Estimated
Fri 01:40:00 PM 27.5149 -81.8805 318° Northwest  Level Estimated
Fri 01:41:00 PM 27.5149 -81.8805 318° Northwest  Level Estimated
Fri 01:42:00 PM 27.5149 -81.8805 318° Northwest  Level Estimated
Fri 01:43:00 PM 27.5149 -81.8805 318° Northwest  Level Estimated
Fri 01:44:00 PM 27.5149 -81.8805 318° Northwest  Level Estimated
Fri 01:45:00 PM 27.5149 -81.8805 318° Northwest  Level Estimated
Fri 01:46:00 PM 27.5149 -81.8805 318° Northwest  Level Estimated
Fri 01:47:00 PM 27.5149 -81.8805 318° Northwest  Level Estimated

Login

Don't have an account? Register now (free) for customized features, flight alerts, and more!